createdAt,value
2018-12-26T00:00:31.121Z,215
2018-12-26T00:01:31.541Z,215
2018-12-26T00:02:30.979Z,215
2018-12-26T00:03:30.130Z,215.3
2018-12-26T00:04:29.082Z,215.1
2018-12-26T00:05:31.006Z,215.1
2018-12-26T00:06:30.396Z,215
2018-12-26T00:07:29.990Z,215
2018-12-26T00:08:31.613Z,215
2018-12-26T00:09:31.975Z,215
2018-12-26T00:10:29.880Z,215
2018-12-26T00:11:29.237Z,215
2018-12-26T00:12:30.002Z,215.3
2018-12-26T00:13:31.102Z,215.1
2018-12-26T00:14:28.662Z,215.3
2018-12-26T00:15:29.945Z,215.2
2018-12-26T00:16:29.648Z,215.1
2018-12-26T00:17:29.348Z,215
2018-12-26T00:18:30.537Z,215
2018-12-26T00:19:30.132Z,215
2018-12-26T00:20:31.029Z,215
2018-12-26T00:21:29.697Z,215
2018-12-26T00:22:28.817Z,215
2018-12-26T00:23:30.111Z,215
2018-12-26T00:24:29.924Z,215
2018-12-26T00:25:30.048Z,215.3
2018-12-26T00:26:30.864Z,215.1
2018-12-26T00:27:29.093Z,215.3
2018-12-26T00:28:31.627Z,215.2
2018-12-26T00:29:29.777Z,215.6
2018-12-26T00:30:29.826Z,215.3
2018-12-26T00:31:30.150Z,215.4
2018-12-26T00:32:31.914Z,215.5
2018-12-26T00:33:29.622Z,215.5
2018-12-26T00:34:29.982Z,215.8
2018-12-26T00:35:29.708Z,215.4
2018-12-26T00:36:29.457Z,215.4
2018-12-26T00:37:30.047Z,215.5
2018-12-26T00:38:29.347Z,215.5
2018-12-26T00:39:30.120Z,215.2
2018-12-26T00:40:29.428Z,215.1
2018-12-26T00:41:29.128Z,215.1
2018-12-26T00:42:29.541Z,215.3
2018-12-26T00:43:30.718Z,215.1
2018-12-26T00:44:29.571Z,215.3
2018-12-26T00:45:30.484Z,215.2
2018-12-26T00:46:29.041Z,215.1
2018-12-26T00:47:26.859Z,215
2018-12-26T00:48:27.196Z,215
2018-12-26T00:49:26.863Z,215
2018-12-26T00:50:26.895Z,215
2018-12-26T00:51:26.954Z,215
2018-12-26T00:52:26.908Z,215
2018-12-26T00:53:26.907Z,215
2018-12-26T00:54:26.868Z,215
2018-12-26T00:55:26.890Z,215.4
2018-12-26T00:56:27.050Z,215.2
2018-12-26T00:57:26.948Z,215.1
2018-12-26T00:58:27.036Z,215
2018-12-26T00:59:26.848Z,215
2018-12-26T01:00:26.910Z,215
2018-12-26T01:01:26.931Z,215
2018-12-26T01:02:26.945Z,215
2018-12-26T01:03:26.983Z,215
2018-12-26T01:04:26.885Z,215
2018-12-26T01:05:26.835Z,215
2018-12-26T01:06:26.903Z,215
2018-12-26T01:07:27.009Z,215
2018-12-26T01:08:26.887Z,215
2018-12-26T01:09:26.916Z,215
2018-12-26T01:10:26.879Z,215
2018-12-26T01:11:26.894Z,215
2018-12-26T01:12:26.935Z,215
2018-12-26T01:13:26.917Z,215
2018-12-26T01:14:26.950Z,215
2018-12-26T01:15:26.989Z,215
2018-12-26T01:16:26.857Z,215
2018-12-26T01:17:26.850Z,215
2018-12-26T01:18:26.898Z,215
2018-12-26T01:19:26.945Z,215
2018-12-26T01:20:27.000Z,215
2018-12-26T01:21:26.854Z,215
2018-12-26T01:22:26.833Z,215
2018-12-26T01:23:26.869Z,215
2018-12-26T01:24:26.919Z,215.4
2018-12-26T01:25:27.083Z,215.2
2018-12-26T01:26:26.930Z,215.1
2018-12-26T01:27:26.826Z,215
2018-12-26T01:28:27.051Z,215
2018-12-26T01:29:26.913Z,215
2018-12-26T01:30:26.910Z,215
2018-12-26T01:31:26.917Z,215
2018-12-26T01:32:26.805Z,215
2018-12-26T01:33:26.862Z,215
2018-12-26T01:34:26.930Z,215
2018-12-26T01:35:26.922Z,215
2018-12-26T01:36:26.978Z,215
2018-12-26T01:37:26.881Z,215
2018-12-26T01:38:26.811Z,215.4
2018-12-26T01:39:27.007Z,215.2
2018-12-26T01:40:26.884Z,215.1
2018-12-26T01:41:26.896Z,215
2018-12-26T01:42:26.884Z,215
2018-12-26T01:43:26.818Z,215
2018-12-26T01:44:26.952Z,215
2018-12-26T01:45:26.896Z,215.5
2018-12-26T01:46:26.894Z,215.2
2018-12-26T01:47:26.855Z,215.1
2018-12-26T01:48:26.895Z,215.1
2018-12-26T01:49:26.911Z,215
2018-12-26T01:50:26.903Z,215
2018-12-26T01:51:26.957Z,215
2018-12-26T01:52:26.869Z,215
2018-12-26T01:53:26.967Z,215
2018-12-26T01:54:26.792Z,215
2018-12-26T01:55:26.919Z,215
2018-12-26T01:56:31.417Z,215
2018-12-26T01:57:26.915Z,215
2018-12-26T01:58:26.856Z,215
2018-12-26T01:59:26.910Z,215
2018-12-26T02:00:26.838Z,215
2018-12-26T02:01:26.865Z,215
2018-12-26T02:02:26.855Z,215
2018-12-26T02:03:26.885Z,215
2018-12-26T02:04:26.928Z,215
2018-12-26T02:05:26.799Z,215
2018-12-26T02:06:26.893Z,215
2018-12-26T02:07:26.900Z,215
2018-12-26T02:08:26.846Z,215
2018-12-26T02:09:26.926Z,215
2018-12-26T02:10:26.806Z,215
2018-12-26T02:11:26.885Z,215
2018-12-26T02:12:26.955Z,215
2018-12-26T02:13:26.890Z,215
2018-12-26T02:14:26.860Z,215
2018-12-26T02:15:26.916Z,215
2018-12-26T02:16:26.809Z,215
2018-12-26T02:17:26.883Z,215
2018-12-26T02:18:26.918Z,215
2018-12-26T02:19:26.881Z,215
2018-12-26T02:20:26.956Z,215
2018-12-26T02:21:26.826Z,215
2018-12-26T02:22:26.830Z,215
2018-12-26T02:23:26.883Z,215
2018-12-26T02:24:26.913Z,215
2018-12-26T02:25:26.890Z,215.3
2018-12-26T02:26:26.875Z,215.1
2018-12-26T02:27:26.760Z,215.1
2018-12-26T02:28:26.855Z,215
2018-12-26T02:29:26.899Z,215
2018-12-26T02:30:26.898Z,215
2018-12-26T02:31:26.903Z,215
2018-12-26T02:32:26.814Z,215.4
2018-12-26T02:33:26.884Z,215.2
2018-12-26T02:34:26.862Z,215.1
2018-12-26T02:35:26.846Z,215
2018-12-26T02:36:26.986Z,215
2018-12-26T02:37:26.887Z,215
2018-12-26T02:38:26.841Z,215
2018-12-26T02:39:26.891Z,215.3
2018-12-26T02:40:26.873Z,215.1
2018-12-26T02:41:26.935Z,215.1
2018-12-26T02:42:26.863Z,215
2018-12-26T02:43:26.788Z,215
2018-12-26T02:44:26.872Z,215.5
2018-12-26T02:45:26.849Z,215.3
2018-12-26T02:46:27.086Z,215.1
2018-12-26T02:47:26.885Z,215.1
2018-12-26T02:48:26.834Z,215
2018-12-26T02:49:26.945Z,215
2018-12-26T02:50:26.861Z,215
2018-12-26T02:51:26.917Z,215
2018-12-26T02:52:27.106Z,215
2018-12-26T02:53:26.880Z,215
2018-12-26T02:54:26.764Z,215
2018-12-26T02:55:26.824Z,215
2018-12-26T02:56:26.855Z,215.4
2018-12-26T02:57:26.970Z,215.2
2018-12-26T02:58:26.880Z,215.1
2018-12-26T02:59:26.812Z,215
2018-12-26T03:00:26.810Z,215
2018-12-26T03:01:26.864Z,215
2018-12-26T03:02:26.942Z,215
2018-12-26T03:03:26.840Z,215
2018-12-26T03:04:27.849Z,215
2018-12-26T03:05:26.789Z,215
2018-12-26T03:06:26.846Z,215
2018-12-26T03:07:26.882Z,215
2018-12-26T03:08:27.025Z,215
2018-12-26T03:09:26.832Z,215
2018-12-26T03:10:26.756Z,215
2018-12-26T03:11:26.874Z,215
2018-12-26T03:12:26.988Z,215
2018-12-26T03:13:26.846Z,215
2018-12-26T03:14:26.980Z,215
2018-12-26T03:15:26.835Z,215
2018-12-26T03:16:26.748Z,215
2018-12-26T03:17:26.916Z,215
2018-12-26T03:18:26.913Z,215
2018-12-26T03:19:26.819Z,215
2018-12-26T03:20:26.848Z,215
2018-12-26T03:21:26.774Z,215
2018-12-26T03:22:26.888Z,215
2018-12-26T03:23:26.865Z,215
2018-12-26T03:24:26.829Z,215
2018-12-26T03:25:26.886Z,215
2018-12-26T03:26:26.832Z,215
2018-12-26T03:27:26.788Z,215
2018-12-26T03:28:26.833Z,215
2018-12-26T03:29:26.833Z,215
2018-12-26T03:30:26.897Z,215
2018-12-26T03:31:26.859Z,215
2018-12-26T03:32:26.824Z,215
2018-12-26T03:33:26.827Z,215
2018-12-26T03:34:26.955Z,215
2018-12-26T03:35:26.913Z,215
2018-12-26T03:36:26.809Z,215
2018-12-26T03:37:26.771Z,215
2018-12-26T03:38:26.768Z,215
2018-12-26T03:39:26.846Z,215
2018-12-26T03:40:26.888Z,215
2018-12-26T03:41:26.841Z,215
2018-12-26T03:42:26.890Z,215
2018-12-26T03:43:26.762Z,215
2018-12-26T03:44:26.820Z,215
2018-12-26T03:45:26.853Z,215
2018-12-26T03:46:26.874Z,215
2018-12-26T03:47:26.966Z,215
2018-12-26T03:48:26.811Z,215
2018-12-26T03:49:26.800Z,215
2018-12-26T03:50:27.002Z,215
2018-12-26T03:51:26.837Z,215
2018-12-26T03:52:26.810Z,215
2018-12-26T03:53:26.818Z,215
2018-12-26T03:54:26.850Z,215
2018-12-26T03:55:26.822Z,215
2018-12-26T03:56:26.937Z,215
2018-12-26T03:57:26.801Z,215
2018-12-26T03:58:26.822Z,215
2018-12-26T03:59:26.763Z,215
2018-12-26T04:00:26.897Z,215
2018-12-26T04:01:26.888Z,215
2018-12-26T04:02:26.801Z,215
2018-12-26T04:03:26.813Z,215
2018-12-26T04:04:26.805Z,215
2018-12-26T04:05:26.759Z,215
2018-12-26T04:06:26.901Z,215
2018-12-26T04:07:26.820Z,215
2018-12-26T04:08:26.792Z,215
2018-12-26T04:09:26.814Z,215
2018-12-26T04:10:26.825Z,215
2018-12-26T04:11:26.867Z,215
2018-12-26T04:12:26.821Z,215
2018-12-26T04:13:26.793Z,215
2018-12-26T04:14:26.851Z,215
2018-12-26T04:15:26.879Z,215
2018-12-26T04:16:26.777Z,215
2018-12-26T04:17:26.887Z,215
2018-12-26T04:18:26.898Z,215
2018-12-26T04:19:26.789Z,215
2018-12-26T04:20:26.776Z,215
2018-12-26T04:21:26.736Z,215
2018-12-26T04:22:26.804Z,215
2018-12-26T04:23:26.856Z,215
2018-12-26T04:24:26.857Z,215
2018-12-26T04:25:26.799Z,215
2018-12-26T04:26:26.839Z,215
2018-12-26T04:27:26.829Z,215
2018-12-26T04:28:26.815Z,215
2018-12-26T04:29:26.796Z,215
2018-12-26T04:30:26.836Z,215
2018-12-26T04:31:26.818Z,215
2018-12-26T04:32:26.778Z,215
2018-12-26T04:33:26.820Z,215
2018-12-26T04:34:26.946Z,215
2018-12-26T04:35:26.756Z,215
2018-12-26T04:36:26.807Z,215
2018-12-26T04:37:26.746Z,215
2018-12-26T04:38:26.770Z,215
2018-12-26T04:39:26.866Z,215
2018-12-26T04:40:26.802Z,215
2018-12-26T04:41:26.837Z,215
2018-12-26T04:42:26.764Z,215
2018-12-26T04:43:26.726Z,215
2018-12-26T04:44:26.854Z,215
2018-12-26T04:45:26.840Z,215
2018-12-26T04:46:26.792Z,215
2018-12-26T04:47:26.790Z,215
2018-12-26T04:48:26.720Z,215
2018-12-26T04:49:27.444Z,215
2018-12-26T04:50:26.854Z,215
2018-12-26T04:51:26.760Z,215
2018-12-26T04:52:26.950Z,215
2018-12-26T04:53:26.784Z,215
2018-12-26T04:54:28.322Z,215
2018-12-26T04:55:27.123Z,215
2018-12-26T04:56:28.481Z,215
2018-12-26T04:57:28.430Z,215.3
2018-12-26T04:58:26.729Z,215.1
2018-12-26T04:59:26.706Z,215.1
2018-12-26T05:00:26.771Z,215
2018-12-26T05:01:26.766Z,215
2018-12-26T05:02:26.869Z,215
2018-12-26T05:03:26.841Z,215
2018-12-26T05:04:26.780Z,215
2018-12-26T05:05:26.707Z,215
2018-12-26T05:06:26.815Z,215
2018-12-26T05:07:26.773Z,215
2018-12-26T05:08:26.771Z,215
2018-12-26T05:09:26.863Z,215
2018-12-26T05:10:26.755Z,215
2018-12-26T05:11:26.825Z,215
2018-12-26T05:12:26.860Z,215
2018-12-26T05:13:26.771Z,215
2018-12-26T05:14:26.804Z,215
2018-12-26T05:15:26.779Z,215
2018-12-26T05:16:26.728Z,215
2018-12-26T05:17:26.828Z,215
2018-12-26T05:18:26.863Z,215
2018-12-26T05:19:36.644Z,215
2018-12-26T05:20:26.746Z,216.1
2018-12-26T05:21:26.724Z,215.5
2018-12-26T05:22:26.840Z,215.2
2018-12-26T05:23:26.780Z,215.1
2018-12-26T05:24:26.767Z,215.1
2018-12-26T05:25:26.789Z,215
2018-12-26T05:26:26.889Z,215
2018-12-26T05:27:35.388Z,215
2018-12-26T05:28:26.815Z,215
2018-12-26T05:29:26.813Z,215
2018-12-26T05:30:26.779Z,215
2018-12-26T05:31:26.777Z,215
2018-12-26T05:32:26.669Z,215
2018-12-26T05:33:26.814Z,215
2018-12-26T05:34:26.742Z,215
2018-12-26T05:35:26.732Z,215
2018-12-26T05:36:26.773Z,215
2018-12-26T05:37:26.812Z,215
2018-12-26T05:38:26.679Z,215
2018-12-26T05:39:26.769Z,215
2018-12-26T05:40:26.763Z,215
2018-12-26T05:41:26.752Z,215
2018-12-26T05:42:26.821Z,215
2018-12-26T05:43:26.670Z,215
2018-12-26T05:44:26.790Z,215
2018-12-26T05:45:26.769Z,215
2018-12-26T05:46:26.713Z,215
2018-12-26T05:47:26.786Z,215
2018-12-26T05:48:26.764Z,215
2018-12-26T05:49:26.730Z,215
2018-12-26T05:50:26.711Z,215
2018-12-26T05:51:26.725Z,215
2018-12-26T05:52:26.746Z,215
2018-12-26T05:53:26.784Z,215
2018-12-26T05:54:26.666Z,215
2018-12-26T05:55:26.710Z,215
2018-12-26T05:56:26.742Z,215
2018-12-26T05:57:26.731Z,215
2018-12-26T05:58:26.810Z,215
2018-12-26T05:59:26.856Z,215
2018-12-26T06:00:26.667Z,215
2018-12-26T06:01:26.748Z,215
2018-12-26T06:02:26.800Z,215
2018-12-26T06:03:26.787Z,215
2018-12-26T06:04:26.968Z,215
2018-12-26T06:05:26.691Z,215
2018-12-26T06:06:26.735Z,215
2018-12-26T06:07:26.743Z,215
2018-12-26T06:08:26.801Z,215
2018-12-26T06:09:26.835Z,215
2018-12-26T06:10:26.685Z,215
2018-12-26T06:11:26.792Z,215
2018-12-26T06:12:26.735Z,215
2018-12-26T06:13:26.743Z,215
2018-12-26T06:14:26.731Z,215
2018-12-26T06:15:26.749Z,215
2018-12-26T06:16:26.721Z,215
2018-12-26T06:17:26.731Z,215
2018-12-26T06:18:26.771Z,215
2018-12-26T06:19:26.711Z,215
2018-12-26T06:20:26.955Z,215
2018-12-26T06:21:26.802Z,215
2018-12-26T06:22:26.741Z,215
2018-12-26T06:23:26.702Z,215
2018-12-26T06:24:26.832Z,215
2018-12-26T06:25:26.773Z,215
2018-12-26T06:26:26.657Z,215
2018-12-26T06:27:26.733Z,215
2018-12-26T06:28:26.696Z,215
2018-12-26T06:29:26.758Z,215
2018-12-26T06:30:26.773Z,215
2018-12-26T06:31:26.750Z,215
2018-12-26T06:32:27.533Z,215
2018-12-26T06:33:26.833Z,215
2018-12-26T06:34:26.718Z,215
2018-12-26T06:35:26.717Z,215
2018-12-26T06:36:26.713Z,215
2018-12-26T06:37:26.637Z,215
2018-12-26T06:38:26.714Z,215
2018-12-26T06:39:26.679Z,215
2018-12-26T06:40:26.708Z,215
2018-12-26T06:41:26.746Z,215
2018-12-26T06:42:26.777Z,215
2018-12-26T06:43:26.648Z,215
2018-12-26T06:44:26.730Z,215
2018-12-26T06:45:26.785Z,215
2018-12-26T06:46:26.729Z,215
2018-12-26T06:47:26.772Z,215
2018-12-26T06:48:26.839Z,215
2018-12-26T06:49:26.690Z,215
2018-12-26T06:50:26.807Z,215
2018-12-26T06:51:26.713Z,215
2018-12-26T06:52:27.605Z,215
2018-12-26T06:53:26.724Z,215.3
2018-12-26T06:54:26.637Z,215.1
2018-12-26T06:55:26.782Z,215.1
2018-12-26T06:56:26.710Z,215
2018-12-26T06:57:26.702Z,215
2018-12-26T06:58:26.688Z,215
2018-12-26T06:59:26.720Z,215
2018-12-26T07:00:26.707Z,215
2018-12-26T07:01:26.736Z,215
2018-12-26T07:02:26.745Z,215
2018-12-26T07:03:28.481Z,215
2018-12-26T07:04:26.888Z,215
2018-12-26T07:05:26.684Z,215
2018-12-26T07:06:26.763Z,215
2018-12-26T07:07:26.722Z,215
2018-12-26T07:08:26.704Z,215
2018-12-26T07:09:26.866Z,215
2018-12-26T07:10:26.652Z,215
2018-12-26T07:11:26.773Z,215
2018-12-26T07:12:26.695Z,215
2018-12-26T07:13:26.687Z,215
2018-12-26T07:14:26.740Z,215
2018-12-26T07:15:26.655Z,215
2018-12-26T07:16:26.685Z,215
2018-12-26T07:17:26.693Z,215
2018-12-26T07:18:26.692Z,215
2018-12-26T07:19:26.778Z,215
2018-12-26T07:20:26.654Z,215
2018-12-26T07:21:26.625Z,215
2018-12-26T07:22:26.674Z,215
2018-12-26T07:23:26.727Z,215
2018-12-26T07:24:26.711Z,215
2018-12-26T07:25:26.661Z,215
2018-12-26T07:26:26.639Z,215
2018-12-26T07:27:26.782Z,215
2018-12-26T07:28:26.654Z,222.1
2018-12-26T07:29:26.683Z,276
2018-12-26T07:30:26.701Z,294
2018-12-26T07:31:26.671Z,300.4
2018-12-26T07:32:31.785Z,296.5
2018-12-26T07:33:26.658Z,300.6
2018-12-26T07:34:26.650Z,317.6
2018-12-26T07:35:26.772Z,327.8
2018-12-26T07:36:26.654Z,317
2018-12-26T07:37:26.708Z,306.2
2018-12-26T07:38:26.586Z,305.4
2018-12-26T07:39:26.872Z,278.1
2018-12-26T07:40:26.606Z,254.5
2018-12-26T07:41:26.773Z,242.9
2018-12-26T07:42:26.678Z,227.6
2018-12-26T07:43:26.574Z,220.6
2018-12-26T07:44:26.673Z,217.6
2018-12-26T07:45:26.693Z,216.2
2018-12-26T07:46:26.727Z,215.6
2018-12-26T07:47:26.646Z,215.3
2018-12-26T07:48:28.933Z,215.1
2018-12-26T07:49:26.611Z,215.1
2018-12-26T07:50:26.637Z,215
2018-12-26T07:51:26.638Z,215
2018-12-26T07:52:26.652Z,215
2018-12-26T07:53:26.751Z,215
2018-12-26T07:54:26.615Z,215
2018-12-26T07:55:26.627Z,215
2018-12-26T07:56:26.687Z,215
2018-12-26T07:57:26.721Z,215
2018-12-26T07:58:26.689Z,215
2018-12-26T07:59:26.609Z,215
2018-12-26T08:00:26.618Z,215
2018-12-26T08:01:26.694Z,215
2018-12-26T08:02:26.636Z,215
2018-12-26T08:03:26.650Z,215
2018-12-26T08:04:26.893Z,215
2018-12-26T08:05:26.598Z,215
2018-12-26T08:06:26.777Z,215
2018-12-26T08:07:26.638Z,215
2018-12-26T08:08:26.647Z,215
2018-12-26T08:09:26.695Z,215
2018-12-26T08:10:26.619Z,215
2018-12-26T08:11:26.716Z,215
2018-12-26T08:12:26.624Z,215
2018-12-26T08:13:26.725Z,215
2018-12-26T08:14:26.646Z,215
2018-12-26T08:15:26.633Z,215
2018-12-26T08:16:26.655Z,215
2018-12-26T08:17:26.653Z,215
2018-12-26T08:18:26.646Z,215
2018-12-26T08:19:26.659Z,215
2018-12-26T08:20:26.625Z,215
2018-12-26T08:21:26.662Z,215
2018-12-26T08:22:26.798Z,215
2018-12-26T08:23:26.628Z,215
2018-12-26T08:24:26.675Z,215
2018-12-26T08:25:26.590Z,215
2018-12-26T08:26:26.647Z,215
2018-12-26T08:27:26.566Z,215
2018-12-26T08:28:30.315Z,215
2018-12-26T08:29:26.595Z,215
2018-12-26T08:30:26.787Z,215
2018-12-26T08:31:26.684Z,215
2018-12-26T08:32:26.603Z,215
2018-12-26T08:33:26.746Z,215
2018-12-26T08:34:26.624Z,215
2018-12-26T08:35:26.592Z,215
2018-12-26T08:36:27.738Z,215
2018-12-26T08:37:26.692Z,215
2018-12-26T08:38:26.653Z,215
2018-12-26T08:39:27.876Z,215
2018-12-26T08:40:26.640Z,215
2018-12-26T08:41:26.837Z,215
2018-12-26T08:42:26.795Z,215
2018-12-26T08:43:26.568Z,215
2018-12-26T08:44:26.621Z,215
2018-12-26T08:45:26.687Z,215
2018-12-26T08:46:26.628Z,215
2018-12-26T08:47:26.663Z,215
2018-12-26T08:48:26.565Z,215
2018-12-26T08:49:26.661Z,215
2018-12-26T08:50:26.652Z,227.5
2018-12-26T08:51:26.650Z,199.1
2018-12-26T08:52:26.625Z,182.5
2018-12-26T08:53:26.695Z,175.5
2018-12-26T08:54:26.554Z,172.5
2018-12-26T08:55:29.268Z,171.2
2018-12-26T08:56:26.639Z,170.5
2018-12-26T08:57:26.628Z,170.3
2018-12-26T08:58:34.943Z,170.1
2018-12-26T08:59:26.645Z,170.1
2018-12-26T09:00:26.760Z,170
2018-12-26T09:01:26.999Z,170
2018-12-26T09:02:26.689Z,170
2018-12-26T09:03:26.593Z,170
2018-12-26T09:04:26.662Z,170
2018-12-26T09:05:26.651Z,170
2018-12-26T09:06:26.592Z,170
2018-12-26T09:07:26.595Z,170
2018-12-26T09:08:26.661Z,170
2018-12-26T09:09:26.729Z,170
2018-12-26T09:10:28.026Z,170
2018-12-26T09:11:26.705Z,170
2018-12-26T09:12:26.627Z,170
2018-12-26T09:13:26.632Z,170
2018-12-26T09:14:26.615Z,170
2018-12-26T09:15:26.537Z,170
2018-12-26T09:16:26.590Z,170
2018-12-26T09:17:26.603Z,170
2018-12-26T09:18:26.606Z,170
2018-12-26T09:19:26.613Z,170
2018-12-26T09:20:26.625Z,170
2018-12-26T09:21:26.651Z,170
2018-12-26T09:22:26.591Z,170
2018-12-26T09:23:26.615Z,170
2018-12-26T09:24:26.603Z,170
2018-12-26T09:25:26.669Z,170
2018-12-26T09:26:26.617Z,170
2018-12-26T09:27:26.641Z,170
2018-12-26T09:28:26.622Z,170
2018-12-26T09:29:26.617Z,170
2018-12-26T09:30:26.613Z,170
2018-12-26T09:31:26.565Z,170
2018-12-26T09:32:26.606Z,170
2018-12-26T09:33:26.601Z,170
2018-12-26T09:34:26.706Z,170
2018-12-26T09:35:26.614Z,170
2018-12-26T09:36:26.639Z,170
2018-12-26T09:37:26.543Z,170
2018-12-26T09:38:26.512Z,170
2018-12-26T09:39:26.590Z,170
2018-12-26T09:40:26.780Z,170
2018-12-26T09:41:26.638Z,170
2018-12-26T09:42:26.766Z,170
2018-12-26T09:43:26.511Z,170
2018-12-26T09:44:26.583Z,170
2018-12-26T09:45:26.597Z,170
2018-12-26T09:46:26.618Z,170
2018-12-26T09:47:26.747Z,170
2018-12-26T09:48:26.504Z,170
2018-12-26T09:49:26.597Z,170
2018-12-26T09:50:26.638Z,170
2018-12-26T09:51:26.585Z,170
2018-12-26T09:52:26.674Z,170
2018-12-26T09:53:27.291Z,170
2018-12-26T09:54:26.524Z,170
2018-12-26T09:55:26.650Z,170
2018-12-26T09:56:26.567Z,170
2018-12-26T09:57:26.657Z,170
2018-12-26T09:58:26.600Z,170
2018-12-26T09:59:26.507Z,170
2018-12-26T10:00:26.592Z,170
2018-12-26T10:01:26.566Z,170
2018-12-26T10:02:26.676Z,170
2018-12-26T10:03:26.618Z,170
2018-12-26T10:04:26.574Z,170
2018-12-26T10:05:27.052Z,170
2018-12-26T10:06:26.565Z,170
2018-12-26T10:07:26.788Z,170
2018-12-26T10:08:26.687Z,170
2018-12-26T10:09:26.606Z,170
2018-12-26T10:10:26.559Z,170
2018-12-26T10:11:26.710Z,170
2018-12-26T10:12:26.671Z,170
2018-12-26T10:13:26.623Z,170
2018-12-26T10:14:26.637Z,170
2018-12-26T10:15:26.616Z,170
2018-12-26T10:16:26.595Z,170
2018-12-26T10:17:26.601Z,170
2018-12-26T10:18:26.574Z,170
2018-12-26T10:19:26.606Z,170
2018-12-26T10:20:26.662Z,170
2018-12-26T10:21:26.600Z,170
2018-12-26T10:22:26.551Z,170
2018-12-26T10:23:26.579Z,170
2018-12-26T10:24:26.544Z,170
2018-12-26T10:25:26.843Z,170
2018-12-26T10:26:26.606Z,170
2018-12-26T10:27:26.636Z,170
2018-12-26T10:28:26.576Z,170
2018-12-26T10:29:26.623Z,170
2018-12-26T10:30:26.650Z,170
2018-12-26T10:31:26.551Z,170
2018-12-26T10:32:26.896Z,170
2018-12-26T10:33:26.821Z,170
2018-12-26T10:34:26.585Z,170
2018-12-26T10:35:26.565Z,170
2018-12-26T10:36:26.684Z,170
2018-12-26T10:37:26.854Z,170
2018-12-26T10:38:26.607Z,170
2018-12-26T10:39:26.590Z,170
2018-12-26T10:40:26.583Z,170
2018-12-26T10:41:26.550Z,170
2018-12-26T10:42:26.824Z,170
2018-12-26T10:43:26.695Z,170
2018-12-26T10:44:28.889Z,170
2018-12-26T10:45:26.523Z,170
2018-12-26T10:46:27.323Z,170
2018-12-26T10:47:29.535Z,170
2018-12-26T10:48:28.611Z,170
2018-12-26T10:49:27.529Z,170
2018-12-26T10:50:29.744Z,170
2018-12-26T10:51:30.772Z,170
2018-12-26T10:52:27.016Z,170
2018-12-26T10:53:35.158Z,170
2018-12-26T10:54:27.221Z,170
2018-12-26T10:55:28.925Z,170
2018-12-26T10:56:28.771Z,170
2018-12-26T10:57:26.612Z,170
2018-12-26T10:58:26.554Z,170
2018-12-26T10:59:26.475Z,170
2018-12-26T11:00:27.954Z,170
2018-12-26T11:01:26.487Z,170
2018-12-26T11:02:26.976Z,170
2018-12-26T11:03:29.230Z,170
2018-12-26T11:04:26.517Z,170
2018-12-26T11:05:37.071Z,170
2018-12-26T11:06:26.749Z,170
2018-12-26T11:07:26.812Z,170
2018-12-26T11:09:29.443Z,170
2018-12-26T11:10:29.267Z,170
2018-12-26T11:11:32.171Z,170
2018-12-26T11:12:29.554Z,170
2018-12-26T11:13:29.487Z,170
2018-12-26T11:14:29.510Z,170
2018-12-26T11:15:29.375Z,170
2018-12-26T11:16:29.316Z,170
2018-12-26T11:17:31.410Z,170
2018-12-26T11:18:29.240Z,170
2018-12-26T11:19:33.478Z,170
2018-12-26T11:20:29.209Z,170
2018-12-26T11:21:31.770Z,170
2018-12-26T11:22:30.675Z,170
2018-12-26T11:23:35.803Z,170
2018-12-26T11:24:33.811Z,170
2018-12-26T11:25:33.447Z,170
2018-12-26T11:26:32.517Z,170
2018-12-26T11:27:33.333Z,170
2018-12-26T11:28:30.992Z,170
2018-12-26T11:29:29.317Z,173.1
2018-12-26T11:30:29.215Z,183.2
2018-12-26T11:31:31.481Z,188.2
2018-12-26T11:32:30.496Z,190.5
2018-12-26T11:33:29.728Z,191.6
2018-12-26T11:34:29.245Z,188.7
2018-12-26T11:35:29.263Z,190.7
2018-12-26T11:36:29.323Z,191.7
2018-12-26T11:37:29.216Z,192.1
2018-12-26T11:38:29.298Z,192.3
2018-12-26T11:39:29.206Z,192.4
2018-12-26T11:40:29.231Z,192.5
2018-12-26T11:41:29.261Z,192.5
2018-12-26T11:42:29.242Z,192.5
2018-12-26T11:43:30.121Z,192.5
2018-12-26T11:44:29.462Z,192.5
2018-12-26T11:45:29.179Z,192.5
2018-12-26T11:46:29.198Z,192.5
2018-12-26T11:47:29.325Z,192.5
2018-12-26T11:48:29.208Z,192.5
2018-12-26T11:49:29.226Z,192.5
2018-12-26T11:50:29.203Z,192.5
2018-12-26T11:51:29.215Z,192.5
2018-12-26T11:52:29.282Z,192.5
2018-12-26T11:53:29.193Z,192.5
2018-12-26T11:54:29.220Z,192.5
2018-12-26T11:55:29.283Z,192.5
2018-12-26T11:56:29.213Z,192.5
2018-12-26T11:57:29.201Z,192.5
2018-12-26T11:58:29.291Z,192.5
2018-12-26T11:59:30.645Z,192.5
2018-12-26T12:00:29.283Z,192.5
2018-12-26T12:01:29.232Z,192.5
2018-12-26T12:02:29.215Z,192.5
2018-12-26T12:03:29.233Z,192.5
2018-12-26T12:04:29.154Z,192.5
2018-12-26T12:05:29.328Z,192.5
2018-12-26T12:06:29.235Z,192.5
2018-12-26T12:07:29.201Z,192.5
2018-12-26T12:08:29.211Z,192.5
2018-12-26T12:09:29.244Z,192.5
2018-12-26T12:10:29.206Z,192.5
2018-12-26T12:11:29.594Z,192.5
2018-12-26T12:12:29.209Z,192.5
2018-12-26T12:13:29.162Z,192.5
2018-12-26T12:14:29.293Z,192.5
2018-12-26T12:15:29.212Z,192.5
2018-12-26T12:16:29.295Z,192.5
2018-12-26T12:17:31.514Z,192.5
2018-12-26T12:18:29.387Z,192.5
2018-12-26T12:19:29.387Z,192.5
2018-12-26T12:20:29.451Z,192.5
2018-12-26T12:21:29.274Z,192.5
2018-12-26T12:22:29.245Z,192.5
2018-12-26T12:23:29.330Z,192.5
2018-12-26T12:24:29.247Z,192.5
2018-12-26T12:25:29.220Z,192.5
2018-12-26T12:26:30.749Z,192.5
2018-12-26T12:28:37.350Z,192.5
2018-12-26T12:29:39.756Z,192.5
2018-12-26T12:30:37.332Z,192.5
2018-12-26T12:31:38.562Z,192.5
2018-12-26T12:32:37.390Z,192.5
2018-12-26T12:33:37.383Z,192.5
2018-12-26T12:34:37.296Z,192.5
2018-12-26T12:35:37.267Z,192.5
2018-12-26T12:36:37.434Z,192.5
2018-12-26T12:37:37.223Z,192.5
2018-12-26T12:38:37.333Z,192.5
2018-12-26T12:39:37.961Z,192.5
2018-12-26T12:40:37.280Z,192.5
2018-12-26T12:41:37.221Z,192.5
2018-12-26T12:42:37.333Z,192.5
2018-12-26T12:43:37.341Z,192.5
2018-12-26T12:44:37.288Z,192.5
2018-12-26T12:45:37.250Z,192.5
2018-12-26T12:46:37.259Z,192.5
2018-12-26T12:47:38.462Z,192.5
2018-12-26T12:48:37.354Z,192.5
2018-12-26T12:49:38.544Z,192.5
2018-12-26T12:50:37.342Z,192.5
2018-12-26T12:51:37.072Z,192.5
2018-12-26T12:52:37.153Z,192.5
2018-12-26T12:53:39.409Z,192.5
2018-12-26T12:54:37.400Z,192.5
2018-12-26T12:55:37.280Z,192.5
2018-12-26T12:56:37.271Z,192.5
2018-12-26T12:57:37.341Z,192.5
2018-12-26T12:58:37.585Z,192.5
2018-12-26T12:59:46.045Z,192.5
2018-12-26T13:00:37.518Z,192.5
2018-12-26T13:01:37.542Z,192.5
2018-12-26T13:02:37.460Z,192.5
2018-12-26T13:03:37.540Z,192.5
2018-12-26T13:04:37.541Z,192.5
2018-12-26T13:05:37.499Z,192.5
2018-12-26T13:06:37.472Z,192.5
2018-12-26T13:07:41.010Z,192.5
2018-12-26T13:08:37.269Z,192.5
2018-12-26T13:09:37.419Z,192.5
2018-12-26T13:10:37.078Z,192.5
2018-12-26T13:11:37.167Z,192.5
2018-12-26T13:12:37.137Z,192.5
2018-12-26T13:13:37.144Z,192.5
2018-12-26T13:14:37.171Z,192.5
2018-12-26T13:15:37.095Z,192.5
2018-12-26T13:16:37.130Z,192.5
2018-12-26T13:17:37.098Z,192.5
2018-12-26T13:18:37.143Z,192.5
2018-12-26T13:19:37.311Z,192.5
2018-12-26T13:20:37.144Z,192.5
2018-12-26T13:21:37.067Z,192.5
2018-12-26T13:22:37.074Z,192.5
2018-12-26T13:23:37.307Z,192.5
2018-12-26T13:24:37.312Z,192.5
2018-12-26T13:25:37.118Z,192.5
2018-12-26T13:26:37.063Z,192.5
2018-12-26T13:27:37.120Z,192.5
2018-12-26T13:28:37.307Z,192.5
2018-12-26T13:29:37.233Z,192.5
2018-12-26T13:30:37.126Z,192.5
2018-12-26T13:31:37.869Z,192.5
2018-12-26T13:32:37.295Z,192.5